Time;durP1;ratioP1;P1;durP2;ratioP2;P2;SDS_P1;SDS_P2;PMS_P1;PMS_P2;Temp;Humidity;BMP_temperature;BMP_pressure;BME280_temperature;BME280_humidity;BME280_pressure;Samples;Min_cycle;Max_cycle;Signal;HPM_P1;HPM_P2
2023/05/15 03:02:35;;;;;;;45.97;23.35;;;9.90;99.90;;;;;;5009261;23;20137;-80
2023/05/15 03:05:00;;;;;;;49.97;25.65;;;9.90;99.90;;;;;;4977534;28;20074;-79
2023/05/15 03:07:26;;;;;;;44.42;24.00;;;9.90;99.90;;;;;;4977149;28;20046;-80
2023/05/15 03:09:52;;;;;;;46.83;24.88;;;9.80;99.90;;;;;;4994510;28;20477;-80
2023/05/15 03:12:17;;;;;;;50.25;26.15;;;9.80;99.90;;;;;;4994354;28;20081;-79
2023/05/15 03:14:43;;;;;;;48.50;24.88;;;9.80;99.90;;;;;;4977208;28;20073;-80
2023/05/15 03:17:08;;;;;;;48.00;24.50;;;9.80;99.90;;;;;;4976943;28;20121;-81
2023/05/15 03:19:34;;;;;;;47.15;24.42;;;9.90;99.90;;;;;;4977007;28;20111;-79
2023/05/15 03:22:00;;;;;;;47.67;24.00;;;9.90;99.90;;;;;;4976527;28;20117;-79
2023/05/15 03:24:26;;;;;;;47.47;23.85;;;9.90;99.90;;;;;;4994942;28;20121;-79
2023/05/15 03:26:51;;;;;;;51.78;25.42;;;10.00;99.90;;;;;;4997915;28;20038;-80
2023/05/15 03:29:17;;;;;;;50.15;24.25;;;10.00;99.90;;;;;;4980443;28;20042;-80
2023/05/15 03:31:42;;;;;;;50.05;26.05;;;10.00;99.90;;;;;;4980456;28;20038;-81
2023/05/15 03:34:08;;;;;;;47.70;23.67;;;10.00;99.90;;;;;;4997916;28;20069;-79
2023/05/15 03:36:34;;;;;;;46.63;22.50;;;10.10;99.90;;;;;;4997789;28;20126;-80
2023/05/15 03:38:59;;;;;;;48.10;21.55;;;10.10;99.90;;;;;;4980147;28;20042;-78
2023/05/15 03:41:26;;;;;;;42.17;22.00;;;10.10;99.90;;;;;;4980360;28;20129;-80
2023/05/15 03:43:52;;;;;;;43.28;22.50;;;10.10;99.90;;;;;;4979942;28;20042;-79
2023/05/15 03:46:18;;;;;;;44.30;22.77;;;10.20;99.90;;;;;;4997777;28;20437;-79
2023/05/15 03:49:05;;;;;;;48.08;24.58;;;10.20;99.90;;;;;;4997340;28;20478;-79
2023/05/15 03:51:31;;;;;;;41.90;22.58;;;10.20;99.90;;;;;;4996683;28;20038;-79
2023/05/15 03:53:56;;;;;;;40.28;21.98;;;10.30;99.90;;;;;;4980141;28;20121;-80
2023/05/15 03:56:22;;;;;;;42.35;22.95;;;10.30;99.90;;;;;;4997592;28;20042;-79
2023/05/15 03:58:48;;;;;;;43.85;22.98;;;10.30;99.90;;;;;;4979535;28;20050;-80
2023/05/15 04:01:13;;;;;;;41.70;22.20;;;10.40;99.90;;;;;;4979668;28;20046;-79
2023/05/15 04:03:39;;;;;;;46.92;23.70;;;10.40;99.90;;;;;;4979966;28;20065;-80
2023/05/15 04:06:05;;;;;;;41.97;21.80;;;10.40;99.90;;;;;;4980306;28;20035;-79
2023/05/15 04:08:30;;;;;;;42.03;22.35;;;10.40;99.90;;;;;;4980170;28;20074;-78
2023/05/15 04:10:56;;;;;;;42.97;21.80;;;10.40;99.90;;;;;;4979815;28;20046;-80
2023/05/15 04:13:22;;;;;;;43.00;21.30;;;10.40;99.90;;;;;;4980459;28;20478;-81
2023/05/15 04:15:47;;;;;;;39.47;21.60;;;10.40;99.90;;;;;;4983535;28;20092;-80
2023/05/15 04:18:13;;;;;;;44.60;21.80;;;10.40;99.90;;;;;;5015455;28;20037;-79
2023/05/15 04:20:39;;;;;;;38.13;20.40;;;10.40;99.90;;;;;;4981994;28;20145;-80
2023/05/15 04:23:05;;;;;;;38.60;21.13;;;10.40;99.90;;;;;;4982602;28;20041;-80
2023/05/15 04:25:31;;;;;;;41.13;20.92;;;10.40;99.90;;;;;;4983038;28;20104;-76
2023/05/15 04:27:56;;;;;;;42.67;21.55;;;10.40;99.90;;;;;;5016729;28;20041;-79
2023/05/15 04:30:22;;;;;;;40.25;20.98;;;10.50;99.90;;;;;;4998898;28;20556;-82
2023/05/15 04:32:50;;;;;;;36.70;21.13;;;10.50;99.90;;;;;;4998990;28;20041;-82
2023/05/15 04:35:16;;;;;;;38.63;21.20;;;10.50;99.90;;;;;;5016602;28;20521;-80
2023/05/15 04:37:44;;;;;;;38.85;20.92;;;10.50;99.90;;;;;;5015841;28;20128;-81
2023/05/15 04:40:11;;;;;;;39.83;20.55;;;10.50;99.90;;;;;;5016441;28;20057;-83
2023/05/15 04:42:36;;;;;;;38.25;20.73;;;10.50;99.90;;;;;;5015939;28;20412;-83
2023/05/15 04:45:02;;;;;;;38.15;21.42;;;10.50;99.90;;;;;;4998602;28;20046;-83
2023/05/15 04:47:28;;;;;;;38.80;20.00;;;10.50;99.90;;;;;;5015310;28;20061;-82
2023/05/15 04:49:54;;;;;;;35.83;20.58;;;10.50;99.90;;;;;;5015506;28;20041;-82
2023/05/15 04:52:20;;;;;;;36.75;20.67;;;10.60;99.90;;;;;;5016637;28;20041;-82
2023/05/15 04:54:46;;;;;;;37.95;19.92;;;10.60;99.90;;;;;;5016836;28;20045;-80
2023/05/15 04:57:26;;;;;;;38.03;19.98;;;10.60;99.90;;;;;;5016168;28;20402;-83
2023/05/15 05:00:20;;;;;;;;;;;10.60;99.90;;;;;;5093035;28;20508;-77
2023/05/15 05:02:46;;;;;;;;;;;10.70;99.90;;;;;;5090076;28;19916;-82
2023/05/15 05:05:15;;;;;;;34.88;18.88;;;10.80;99.90;;;;;;5074009;28;19982;-82
2023/05/15 05:07:43;;;;;;;36.40;20.58;;;10.80;99.90;;;;;;5091890;28;20066;-80
2023/05/15 05:10:09;;;;;;;34.85;19.77;;;10.90;99.90;;;;;;5073500;28;20136;-79
2023/05/15 05:12:38;;;;;;;32.15;18.17;;;10.90;99.90;;;;;;5091898;28;20055;-83
2023/05/15 05:15:04;;;;;;;36.60;20.05;;;10.90;99.90;;;;;;5090459;28;20042;-82
2023/05/15 05:17:30;;;;;;;32.22;18.88;;;10.90;99.90;;;;;;5074103;28;20045;-82
2023/05/15 05:19:56;;;;;;;32.10;19.30;;;10.90;99.90;;;;;;5074059;28;20052;-80
2023/05/15 05:22:22;;;;;;;30.02;18.88;;;10.90;99.90;;;;;;5073112;28;20109;-81
2023/05/15 05:24:47;;;;;;;28.55;17.60;;;10.90;99.90;;;;;;5074635;28;20056;-81
2023/05/15 05:27:13;;;;;;;31.60;20.02;;;11.00;99.90;;;;;;5073982;28;20036;-83
2023/05/15 05:29:38;;;;;;;32.00;18.20;;;11.00;99.90;;;;;;5091970;28;20036;-83
2023/05/15 05:32:06;;;;;;;34.15;20.00;;;11.00;99.90;;;;;;5074247;28;20122;-81
2023/05/15 05:34:31;;;;;;;37.67;20.33;;;11.00;99.90;;;;;;5091904;28;20032;-82
2023/05/15 05:36:57;;;;;;;39.25;19.85;;;10.90;99.90;;;;;;5091797;28;20047;-82
2023/05/15 05:39:23;;;;;;;32.42;19.38;;;10.90;99.90;;;;;;5092101;28;20105;-82
2023/05/15 05:41:49;;;;;;;36.30;19.98;;;10.90;99.90;;;;;;5091238;28;20039;-81
2023/05/15 05:44:25;;;;;;;;;;;;;;;;;;;;;
2023/05/15 05:46:51;;;;;;;31.80;18.55;;;10.80;99.90;;;;;;5090491;28;20044;-81
2023/05/15 05:49:20;;;;;;;33.15;19.17;;;10.80;99.90;;;;;;5072461;28;20348;-83
2023/05/15 05:51:46;;;;;;;34.65;20.38;;;10.90;99.90;;;;;;5090594;28;20455;-81
2023/05/15 05:54:13;;;;;;;34.63;20.60;;;10.90;99.90;;;;;;5089739;28;20040;-82
2023/05/15 05:56:40;;;;;;;33.88;20.45;;;10.90;99.90;;;;;;5089892;28;20080;-80
2023/05/15 05:59:07;;;;;;;34.40;20.13;;;11.00;99.90;;;;;;5090954;28;20109;-81
2023/05/15 06:01:32;;;;;;;36.10;19.83;;;11.00;99.90;;;;;;5089390;28;20102;-81
2023/05/15 06:03:58;;;;;;;36.30;21.30;;;11.00;99.90;;;;;;5089311;28;20040;-81
2023/05/15 06:06:24;;;;;;;37.05;21.80;;;11.00;99.90;;;;;;5090438;28;20395;-79
2023/05/15 06:08:49;;;;;;;31.45;20.40;;;11.10;99.90;;;;;;5089068;28;20044;-81
2023/05/15 06:11:15;;;;;;;35.38;20.13;;;11.10;99.90;;;;;;5077521;28;20372;-80
2023/05/15 06:13:42;;;;;;;30.10;18.58;;;11.10;99.90;;;;;;5075312;28;20063;-79
2023/05/15 06:16:07;;;;;;;33.33;19.60;;;11.10;99.90;;;;;;5075529;28;20040;-79
2023/05/15 06:18:33;;;;;;;32.83;19.77;;;11.10;99.90;;;;;;5075667;28;20110;-80
2023/05/15 06:20:59;;;;;;;36.13;19.33;;;11.10;99.90;;;;;;5075078;28;20058;-79
2023/05/15 06:23:26;;;;;;;31.35;19.27;;;11.10;99.90;;;;;;5074791;28;20033;-78
2023/05/15 06:25:51;;;;;;;38.30;19.38;;;11.20;99.90;;;;;;5075524;28;20379;-79
2023/05/15 06:28:17;;;;;;;31.42;19.50;;;11.30;99.90;;;;;;5075220;28;20051;-77
2023/05/15 06:30:42;;;;;;;28.60;18.00;;;11.30;99.90;;;;;;5075101;28;20132;-78
2023/05/15 06:33:08;;;;;;;32.42;18.70;;;11.40;99.90;;;;;;5075699;28;20052;-79
2023/05/15 06:35:34;;;;;;;33.78;18.75;;;11.40;99.90;;;;;;5074706;28;20041;-77
2023/05/15 06:38:00;;;;;;;31.23;18.27;;;11.40;99.90;;;;;;5074621;28;20048;-79
2023/05/15 06:40:26;;;;;;;31.70;18.27;;;11.40;99.90;;;;;;5075017;28;20055;-77
2023/05/15 06:42:52;;;;;;;26.95;17.10;;;11.40;99.90;;;;;;5076121;28;20036;-77
2023/05/15 06:45:17;;;;;;;32.55;17.45;;;11.40;99.90;;;;;;5074423;28;20041;-78
2023/05/15 06:47:43;;;;;;;31.50;18.40;;;11.40;99.90;;;;;;5057841;28;20397;-76
2023/05/15 06:50:09;;;;;;;30.13;18.30;;;11.50;99.90;;;;;;5074297;28;20094;-78
2023/05/15 06:52:35;;;;;;;28.45;17.48;;;11.40;99.90;;;;;;5075589;28;20047;-76
2023/05/15 06:55:00;;;;;;;28.42;18.17;;;11.50;99.90;;;;;;5079206;28;20049;-74
2023/05/15 06:57:26;;;;;;;32.10;18.50;;;11.50;99.90;;;;;;5080163;28;20040;-76
2023/05/15 06:59:52;;;;;;;29.75;17.98;;;11.50;99.90;;;;;;5076177;28;20044;-77
2023/05/15 07:02:18;;;;;;;31.88;18.00;;;11.50;99.90;;;;;;5074428;28;20037;-76
2023/05/15 07:04:43;;;;;;;28.00;16.70;;;11.60;99.90;;;;;;5075078;28;20036;-76
2023/05/15 07:07:09;;;;;;;28.30;17.75;;;11.70;99.90;;;;;;5074483;28;20377;-77
2023/05/15 07:09:34;;;;;;;27.65;17.80;;;11.80;99.90;;;;;;5074639;28;20036;-76
2023/05/15 07:12:00;;;;;;;30.38;16.80;;;11.90;99.90;;;;;;5074739;28;20037;-78
2023/05/15 07:14:26;;;;;;;25.25;15.63;;;11.90;99.90;;;;;;5074665;28;20141;-77
2023/05/15 07:16:51;;;;;;;26.13;15.30;;;11.90;99.90;;;;;;5073786;28;20492;-77
2023/05/15 07:19:20;;;;;;;24.85;15.35;;;12.00;99.90;;;;;;5073795;28;20040;-70
2023/05/15 07:21:46;;;;;;;30.77;16.95;;;12.00;99.90;;;;;;5072647;28;20499;-78
2023/05/15 07:24:12;;;;;;;26.13;16.83;;;12.10;99.90;;;;;;5073912;28;20048;-77
2023/05/15 07:26:37;;;;;;;27.00;16.60;;;12.10;99.90;;;;;;5075463;28;20036;-76
2023/05/15 07:29:03;;;;;;;24.75;15.48;;;12.20;99.90;;;;;;5073868;28;20078;-77
2023/05/15 07:31:30;;;;;;;23.80;15.88;;;12.20;99.90;;;;;;5057403;28;20046;-78
2023/05/15 07:33:56;;;;;;;29.83;16.70;;;12.20;99.90;;;;;;5073634;28;20045;-78
2023/05/15 07:36:22;;;;;;;24.33;15.88;;;12.30;99.90;;;;;;5057187;28;20102;-78
2023/05/15 07:38:48;;;;;;;24.75;15.88;;;12.30;99.90;;;;;;5057941;28;20131;-78
2023/05/15 07:44:48;;;;;;;;;;;;;;;;;;;;;
2023/05/15 07:47:57;;;;;;;25.65;15.95;;;12.40;99.90;;;;;;5033839;28;20118;-78
2023/05/15 07:50:25;;;;;;;24.50;16.45;;;12.50;99.90;;;;;;5017876;28;20045;-78
2023/05/15 07:52:51;;;;;;;24.85;16.33;;;12.60;99.90;;;;;;5035425;28;20033;-78
2023/05/15 07:55:17;;;;;;;25.88;16.38;;;12.60;99.90;;;;;;5034684;28;20444;-76
2023/05/15 07:57:42;;;;;;;24.98;15.55;;;12.70;99.90;;;;;;5035725;28;20401;-77
2023/05/15 08:00:12;;;;;;;25.33;16.30;;;12.70;99.90;;;;;;5035437;28;20133;-77
2023/05/15 08:02:38;;;;;;;25.05;15.63;;;12.80;99.90;;;;;;5034122;28;20389;-77
2023/05/15 08:05:04;;;;;;;26.60;16.02;;;12.90;99.90;;;;;;5033772;28;20448;-77
2023/05/15 08:07:34;;;;;;;22.80;15.18;;;13.00;99.90;;;;;;5033365;28;20044;-76
2023/05/15 08:10:00;;;;;;;22.85;14.85;;;13.10;99.90;;;;;;5033393;28;20045;-77
2023/05/15 08:12:26;;;;;;;25.65;15.40;;;13.30;99.90;;;;;;5032827;28;20140;-76
2023/05/15 08:14:53;;;;;;;20.45;14.90;;;13.40;99.90;;;;;;5032954;28;20410;-76
2023/05/15 08:17:20;;;;;;;25.27;16.33;;;13.50;99.90;;;;;;5032760;28;20079;-77
2023/05/15 08:19:47;;;;;;;22.10;15.60;;;13.50;99.90;;;;;;5033166;28;20041;-77
2023/05/15 08:22:13;;;;;;;27.88;17.00;;;13.70;99.90;;;;;;5017061;28;20048;-78
2023/05/15 08:24:39;;;;;;;24.95;16.52;;;13.80;99.90;;;;;;5033727;28;20515;-76
2023/05/15 08:27:06;;;;;;;24.30;15.70;;;13.80;99.90;;;;;;5034455;28;20037;-77
2023/05/15 08:29:32;;;;;;;25.63;16.63;;;13.80;99.90;;;;;;5033494;28;20100;-75
2023/05/15 08:31:58;;;;;;;23.25;16.77;;;13.90;99.90;;;;;;5033294;28;20060;-76
2023/05/15 08:34:24;;;;;;;24.65;15.48;;;13.90;99.90;;;;;;5033195;28;20042;-78
2023/05/15 08:36:51;;;;;;;23.90;16.27;;;13.90;99.90;;;;;;5033688;28;20056;-77
2023/05/15 08:39:17;;;;;;;23.90;14.80;;;13.90;99.90;;;;;;5033422;28;20052;-77
2023/05/15 08:42:08;;;;;;;22.70;15.15;;;14.00;99.90;;;;;;5034251;28;20081;-77
2023/05/15 08:44:35;;;;;;;21.63;14.82;;;14.00;99.90;;;;;;5012157;28;20076;-78
2023/05/15 08:47:01;;;;;;;22.30;15.27;;;14.10;99.90;;;;;;5033347;28;20038;-78
2023/05/15 08:49:45;;;;;;;28.15;15.93;;;14.20;99.90;;;;;;5032983;28;20045;-78
2023/05/15 08:52:11;;;;;;;23.92;14.88;;;14.30;99.90;;;;;;5016743;28;20056;-78
2023/05/15 08:54:39;;;;;;;22.02;15.45;;;14.30;99.90;;;;;;5033156;28;20488;-78
2023/05/15 08:57:05;;;;;;;23.23;14.93;;;14.50;99.90;;;;;;5033067;28;20049;-77
2023/05/15 08:59:31;;;;;;;20.90;13.05;;;14.60;99.90;;;;;;5033028;28;20600;-79
2023/05/15 09:01:57;;;;;;;20.00;13.70;;;14.70;99.90;;;;;;5033252;28;20548;-79
2023/05/15 09:04:23;;;;;;;19.05;13.00;;;14.80;99.90;;;;;;5017584;28;20092;-80
2023/05/15 09:06:52;;;;;;;21.52;14.40;;;14.90;99.90;;;;;;5033520;28;20481;-77
2023/05/15 09:09:19;;;;;;;24.58;16.17;;;15.10;99.90;;;;;;5034769;28;20138;-79
2023/05/15 09:11:47;;;;;;;21.25;15.85;;;15.20;99.90;;;;;;5034347;28;20045;-78
2023/05/15 09:14:13;;;;;;;19.30;14.32;;;15.30;99.90;;;;;;5032889;28;20045;-79
2023/05/15 09:16:43;;;;;;;20.88;14.38;;;15.40;99.90;;;;;;5034702;28;20037;-78
2023/05/15 09:19:10;;;;;;;21.98;14.88;;;15.50;99.90;;;;;;5017822;28;20120;-77
2023/05/15 09:21:35;;;;;;;20.48;14.77;;;15.50;99.90;;;;;;5034064;28;20380;-79
2023/05/15 09:24:15;;;;;;;20.70;13.82;;;15.50;99.90;;;;;;5016424;28;20041;-77
2023/05/15 09:26:42;;;;;;;22.27;14.88;;;15.60;99.90;;;;;;5016346;28;20044;-80
2023/05/15 09:29:14;;;;;;;21.10;15.13;;;15.70;99.90;;;;;;5016695;28;20079;-78
2023/05/15 09:31:40;;;;;;;25.00;14.65;;;15.80;99.90;;;;;;5032245;28;20045;-75
2023/05/15 09:34:09;;;;;;;20.60;15.25;;;15.90;99.90;;;;;;5033223;28;20107;-85
2023/05/15 09:36:35;;;;;;;21.40;14.38;;;16.00;99.90;;;;;;5035086;28;20116;-80
2023/05/15 09:39:02;;;;;;;21.55;15.55;;;16.10;99.90;;;;;;5033463;28;20450;-80
2023/05/15 09:41:27;;;;;;;23.35;14.27;;;16.40;99.90;;;;;;5033936;28;20082;-82
2023/05/15 09:43:55;;;;;;;22.85;15.30;;;16.30;99.90;;;;;;5035489;28;20039;-82
2023/05/15 09:46:22;;;;;;;19.95;14.30;;;16.10;99.90;;;;;;5036495;28;20504;-84
2023/05/15 09:48:48;;;;;;;18.60;13.80;;;16.20;99.90;;;;;;5038234;28;20060;-83
2023/05/15 09:51:18;;;;;;;20.45;15.15;;;16.10;99.90;;;;;;5037770;28;20118;-81
2023/05/15 09:53:49;;;;;;;20.38;13.90;;;16.30;99.90;;;;;;5037788;28;20033;-83
2023/05/15 09:56:16;;;;;;;21.15;14.55;;;16.50;99.90;;;;;;5036865;28;20183;-86
2023/05/15 09:59:15;;;;;;;21.30;15.45;;;16.70;99.90;;;;;;5037760;28;20124;-80
2023/05/15 10:01:45;;;;;;;25.23;16.40;;;16.70;99.90;;;;;;5015193;28;20058;-85
2023/05/15 10:04:12;;;;;;;23.23;16.30;;;16.50;99.90;;;;;;5037350;28;20465;-87
2023/05/15 10:06:40;;;;;;;24.27;17.13;;;16.40;99.90;;;;;;5037109;28;20053;-85
2023/05/15 10:09:06;;;;;;;22.48;16.27;;;16.20;99.90;;;;;;5035889;28;20122;-80
2023/05/15 10:11:37;;;;;;;21.17;15.38;;;16.30;99.90;;;;;;5018952;28;20500;-79
2023/05/15 10:14:04;;;;;;;20.17;14.90;;;16.40;99.90;;;;;;5036279;28;20057;-79
2023/05/15 10:16:33;;;;;;;22.77;16.73;;;16.50;99.90;;;;;;5035559;28;20209;-76
2023/05/15 10:19:03;;;;;;;23.20;16.15;;;16.70;99.90;;;;;;5036603;28;20088;-77
2023/05/15 10:21:34;;;;;;;21.45;15.23;;;16.60;99.90;;;;;;5035810;28;20079;-77
2023/05/15 10:24:01;;;;;;;23.20;16.05;;;16.70;99.90;;;;;;5036886;28;20033;-78
2023/05/15 10:26:41;;;;;;;22.63;15.95;;;16.70;99.90;;;;;;5018780;28;20147;-78
2023/05/15 10:29:16;;;;;;;20.48;15.43;;;16.70;99.90;;;;;;5019113;28;20065;-78
2023/05/15 10:31:42;;;;;;;20.23;14.43;;;16.70;99.90;;;;;;5035053;28;20449;-79
2023/05/15 10:34:09;;;;;;;22.90;14.40;;;16.70;99.90;;;;;;5035169;28;20055;-77
2023/05/15 10:36:36;;;;;;;17.65;13.20;;;16.90;99.90;;;;;;5036229;28;20049;-78
2023/05/15 10:39:04;;;;;;;17.50;13.35;;;17.10;99.90;;;;;;5036809;28;20128;-78
2023/05/15 10:41:34;;;;;;;19.48;15.07;;;17.30;99.90;;;;;;5018334;28;20045;-78
2023/05/15 10:44:00;;;;;;;19.48;14.10;;;17.60;99.90;;;;;;5036532;28;20033;-76
2023/05/15 10:46:29;;;;;;;18.25;13.10;;;17.60;99.90;;;;;;5034118;28;20041;-78
2023/05/15 10:48:55;;;;;;;17.92;12.95;;;17.60;99.90;;;;;;5034712;28;20436;-77
2023/05/15 10:51:28;;;;;;;15.50;12.88;;;17.60;99.90;;;;;;5036346;28;20042;-81
2023/05/15 10:54:02;;;;;;;16.92;12.13;;;17.90;99.90;;;;;;5036647;28;20038;-80
2023/05/15 10:56:32;;;;;;;15.98;12.77;;;17.90;99.90;;;;;;5018339;28;20072;-75
2023/05/15 10:59:05;;;;;;;17.85;13.25;;;17.60;99.90;;;;;;5018551;28;20126;-77
2023/05/15 11:01:33;;;;;;;16.40;12.52;;;17.80;99.90;;;;;;5018298;28;20050;-78
2023/05/15 11:04:11;;;;;;;17.80;13.30;;;17.90;99.90;;;;;;5017799;28;20041;-74
2023/05/15 11:06:39;;;;;;;20.55;13.02;;;17.60;99.90;;;;;;5035570;28;20370;-77
2023/05/15 11:09:20;;;;;;;20.70;13.75;;;17.50;99.90;;;;;;5033732;28;20041;-77
2023/05/15 11:12:00;;;;;;;21.60;13.63;;;17.50;99.90;;;;;;5034279;28;20139;-76
2023/05/15 11:14:27;;;;;;;21.30;15.13;;;17.40;99.90;;;;;;5034026;28;20129;-75
2023/05/15 11:16:52;;;;;;;19.13;14.32;;;17.30;99.90;;;;;;5034163;28;20374;-76
2023/05/15 11:19:22;;;;;;;20.88;14.70;;;17.20;99.90;;;;;;5033488;28;20128;-76
2023/05/15 11:21:59;;;;;;;19.40;15.32;;;17.00;99.90;;;;;;5034483;28;20123;-76
2023/05/15 11:24:45;;;;;;;21.02;15.50;;;16.70;99.90;;;;;;5034977;28;20038;-77
2023/05/15 11:27:12;;;;;;;23.85;15.88;;;16.80;99.90;;;;;;5033853;28;20091;-77
2023/05/15 11:30:11;;;;;;;21.75;16.17;;;16.80;99.90;;;;;;5034986;28;20048;-76
2023/05/15 11:32:45;;;;;;;23.70;15.35;;;16.70;99.90;;;;;;5034513;28;20497;-76
2023/05/15 11:35:20;;;;;;;24.90;15.10;;;16.60;99.90;;;;;;5034438;28;20554;-76
2023/05/15 11:37:48;;;;;;;17.02;13.90;;;16.50;99.90;;;;;;5034801;28;20052;-76
2023/05/15 11:40:20;;;;;;;18.83;14.07;;;16.60;99.90;;;;;;5034395;28;20125;-75
2023/05/15 11:43:02;;;;;;;20.20;13.60;;;16.50;99.90;;;;;;5016497;28;20037;-76
2023/05/15 11:45:36;;;;;;;18.10;13.43;;;16.30;99.90;;;;;;5032764;28;20048;-77
2023/05/15 11:48:07;;;;;;;19.88;14.15;;;16.50;99.90;;;;;;5033179;28;20045;-79
2023/05/15 11:50:34;;;;;;;17.88;13.52;;;16.40;99.90;;;;;;5034492;28;20382;-75
2023/05/15 11:53:07;;;;;;;20.00;13.60;;;16.40;99.90;;;;;;5032927;28;20080;-76
2023/05/15 11:55:35;;;;;;;19.33;13.45;;;16.50;99.90;;;;;;5032770;28;20544;-76
2023/05/15 11:58:01;;;;;;;15.93;12.85;;;16.60;99.90;;;;;;5032685;28;20104;-77
2023/05/15 12:00:27;;;;;;;18.20;14.18;;;16.60;99.90;;;;;;5032621;28;20083;-75
2023/05/15 12:02:53;;;;;;;20.38;14.27;;;16.60;99.90;;;;;;5032647;28;20038;-77
2023/05/15 12:05:19;;;;;;;19.38;13.90;;;16.50;99.90;;;;;;5017213;28;20045;-77
2023/05/15 12:07:45;;;;;;;17.88;13.68;;;16.50;99.90;;;;;;5033675;28;20172;-77
2023/05/15 12:10:12;;;;;;;18.23;13.20;;;16.50;99.90;;;;;;5032699;28;20088;-77
2023/05/15 12:12:42;;;;;;;21.17;14.30;;;16.50;99.90;;;;;;5032582;28;20061;-77
2023/05/15 12:15:12;;;;;;;16.45;12.93;;;16.50;99.90;;;;;;5032655;28;20452;-74
2023/05/15 12:17:39;;;;;;;18.88;14.63;;;16.50;99.90;;;;;;5016349;28;20485;-77
2023/05/15 12:20:32;;;;;;;21.00;13.73;;;16.60;99.90;;;;;;5032625;28;20154;-78
2023/05/15 12:22:58;;;;;;;18.42;13.65;;;16.50;99.90;;;;;;5031190;28;20370;-75
2023/05/15 12:25:24;;;;;;;19.85;13.50;;;16.60;99.90;;;;;;5033832;28;20041;-77
2023/05/15 12:27:50;;;;;;;21.75;14.02;;;16.70;99.90;;;;;;5033907;28;20034;-77
2023/05/15 12:30:16;;;;;;;18.38;12.88;;;16.70;99.90;;;;;;5032670;28;20077;-77
2023/05/15 12:32:42;;;;;;;16.65;11.80;;;16.80;99.90;;;;;;5034354;28;20056;-76
2023/05/15 12:35:10;;;;;;;16.20;12.15;;;16.90;99.90;;;;;;5034013;28;20037;-77
2023/05/15 12:37:36;;;;;;;16.27;12.80;;;17.00;99.90;;;;;;5033920;28;20033;-76
2023/05/15 12:40:09;;;;;;;18.70;12.82;;;17.10;99.90;;;;;;5032590;28;20064;-78
2023/05/15 12:42:41;;;;;;;15.55;12.02;;;17.20;99.90;;;;;;5033802;28;20392;-74
2023/05/15 12:45:15;;;;;;;14.80;11.55;;;17.30;99.90;;;;;;5033941;28;20123;-77
2023/05/15 12:47:42;;;;;;;14.32;11.35;;;17.50;99.90;;;;;;5033826;28;20037;-78
2023/05/15 12:50:21;;;;;;;13.85;11.18;;;17.60;99.90;;;;;;5034004;28;20041;-76
2023/05/15 12:52:51;;;;;;;15.70;11.35;;;17.70;99.90;;;;;;5033785;28;20043;-77
2023/05/15 12:55:22;;;;;;;12.63;10.82;;;17.80;99.90;;;;;;5032615;28;20034;-76
2023/05/15 12:57:48;;;;;;;16.67;12.50;;;17.90;99.90;;;;;;5032793;28;20044;-75
2023/05/15 13:00:14;;;;;;;17.52;11.93;;;18.00;99.90;;;;;;5032098;28;20397;-76
2023/05/15 13:02:44;;;;;;;21.00;12.40;;;18.10;99.90;;;;;;5032620;28;20073;-79
2023/05/15 13:05:10;;;;;;;16.40;12.23;;;18.00;99.90;;;;;;5032358;28;20081;-76
2023/05/15 13:07:40;;;;;;;15.95;12.35;;;17.70;99.90;;;;;;5033645;28;20046;-76
2023/05/15 13:10:07;;;;;;;15.07;11.43;;;17.80;99.90;;;;;;5032707;28;20049;-77
2023/05/15 13:12:44;;;;;;;16.02;10.95;;;17.60;99.90;;;;;;5031913;28;20053;-78
2023/05/15 13:15:31;;;;;;;15.07;11.30;;;17.30;99.90;;;;;;5032428;28;20046;-76
2023/05/15 13:18:00;;;;;;;16.65;11.25;;;17.20;99.90;;;;;;5032031;28;20053;-77
2023/05/15 13:20:32;;;;;;;13.88;11.43;;;17.00;99.90;;;;;;5017079;28;20050;-76
2023/05/15 13:22:59;;;;;;;14.50;11.13;;;17.00;99.90;;;;;;5037658;28;20049;-76
2023/05/15 13:25:25;;;;;;;16.05;11.50;;;16.90;99.90;;;;;;5037267;28;20045;-75
2023/05/15 13:27:51;;;;;;;13.32;11.43;;;16.70;99.90;;;;;;5036146;28;20080;-77
2023/05/15 13:30:17;;;;;;;14.05;10.00;;;16.60;99.90;;;;;;5026227;28;20049;-77
2023/05/15 13:32:43;;;;;;;13.98;10.32;;;16.50;99.90;;;;;;5016770;28;20073;-77
2023/05/15 13:35:09;;;;;;;15.73;11.10;;;16.50;99.90;;;;;;5017670;28;20068;-77
2023/05/15 13:37:36;;;;;;;18.90;11.00;;;16.40;99.90;;;;;;5016594;28;20076;-75
2023/05/15 13:40:05;;;;;;;13.63;10.70;;;16.50;99.90;;;;;;5016283;28;20100;-77
2023/05/15 13:42:31;;;;;;;14.88;11.70;;;16.40;99.90;;;;;;5016115;28;20099;-77
2023/05/15 13:44:57;;;;;;;13.88;10.13;;;16.20;99.90;;;;;;5017944;28;20030;-77
2023/05/15 13:47:23;;;;;;;15.65;9.77;;;16.40;99.90;;;;;;5017768;28;20425;-74
2023/05/15 13:49:48;;;;;;;14.55;9.52;;;16.10;99.90;;;;;;5016046;28;20081;-76
2023/05/15 13:52:14;;;;;;;13.15;9.63;;;16.00;99.90;;;;;;5016524;28;20045;-76
2023/05/15 13:54:39;;;;;;;14.32;10.57;;;15.70;99.90;;;;;;5016197;28;20399;-76
2023/05/15 13:57:06;;;;;;;15.63;10.52;;;15.80;99.90;;;;;;5017675;28;20046;-77
2023/05/15 13:59:31;;;;;;;13.90;10.15;;;15.60;99.90;;;;;;5016226;28;20045;-77
2023/05/15 14:01:57;;;;;;;14.02;10.70;;;15.70;99.90;;;;;;5015437;28;20038;-76
2023/05/15 14:04:22;;;;;;;19.48;12.45;;;15.40;99.90;;;;;;5016924;28;20045;-75
2023/05/15 14:06:48;;;;;;;16.35;11.02;;;15.30;99.90;;;;;;5019464;28;20482;-76
2023/05/15 14:09:14;;;;;;;25.95;11.82;;;15.50;99.90;;;;;;5018237;28;20378;-75
2023/05/15 14:11:39;;;;;;;16.27;10.73;;;15.50;99.90;;;;;;5001500;28;20041;-75
2023/05/15 14:14:05;;;;;;;20.55;12.88;;;15.50;99.90;;;;;;5015621;28;20490;-76
2023/05/15 14:16:30;;;;;;;16.80;10.80;;;15.60;99.90;;;;;;5016715;28;20041;-74
2023/05/15 14:18:56;;;;;;;16.83;11.27;;;15.60;99.90;;;;;;5017283;28;20042;-76
2023/05/15 14:21:22;;;;;;;18.00;11.63;;;15.60;99.90;;;;;;5023976;28;20081;-74
2023/05/15 14:23:48;;;;;;;17.48;11.10;;;15.60;99.90;;;;;;5035175;28;20087;-75
2023/05/15 14:26:13;;;;;;;18.00;11.85;;;15.60;99.90;;;;;;5036660;28;20076;-75
2023/05/15 14:28:39;;;;;;;17.48;12.00;;;15.70;99.90;;;;;;5035676;28;20394;-79
2023/05/15 14:31:05;;;;;;;16.48;11.52;;;15.50;99.90;;;;;;5035654;28;20037;-77
2023/05/15 14:33:30;;;;;;;17.08;11.55;;;15.20;99.90;;;;;;5035700;28;20045;-77
2023/05/15 14:35:56;;;;;;;19.35;11.15;;;15.30;99.90;;;;;;5035535;28;20042;-75
2023/05/15 14:38:21;;;;;;;21.83;12.63;;;15.30;99.90;;;;;;5019254;28;20131;-77
2023/05/15 14:40:47;;;;;;;19.60;13.20;;;15.30;99.90;;;;;;5036061;28;20029;-76
2023/05/15 14:43:13;;;;;;;19.63;12.90;;;15.30;99.90;;;;;;5036013;28;20112;-75
2023/05/15 14:45:39;;;;;;;22.27;13.20;;;15.40;99.90;;;;;;5034621;28;20045;-77
2023/05/15 14:48:04;;;;;;;20.73;12.57;;;15.30;99.90;;;;;;5035632;28;20034;-77
2023/05/15 14:50:30;;;;;;;19.60;12.43;;;15.30;99.90;;;;;;5017718;28;20095;-75
2023/05/15 14:52:55;;;;;;;21.27;13.20;;;15.40;99.90;;;;;;5034650;28;20049;-76
2023/05/15 14:55:21;;;;;;;18.33;13.27;;;15.60;99.90;;;;;;5035335;28;20478;-77
2023/05/15 14:57:50;;;;;;;18.20;12.60;;;15.60;99.90;;;;;;5035883;28;20045;-76
2023/05/15 15:00:16;;;;;;;19.50;12.38;;;15.60;99.90;;;;;;5034281;28;20038;-76
2023/05/15 15:02:43;;;;;;;17.92;11.38;;;15.60;99.90;;;;;;5035400;28;20481;-78
2023/05/15 15:05:09;;;;;;;17.30;11.68;;;15.40;99.90;;;;;;5033953;28;20046;-74
2023/05/15 15:07:58;;;;;;;16.15;11.15;;;15.40;99.90;;;;;;5034115;28;20037;-77
2023/05/15 15:10:24;;;;;;;18.70;10.50;;;15.30;99.90;;;;;;5035564;28;20040;-75
2023/05/15 15:12:53;;;;;;;15.98;10.93;;;15.20;99.90;;;;;;5034822;28;20365;-76
2023/05/15 15:15:19;;;;;;;15.00;10.60;;;15.00;99.90;;;;;;5034688;28;20077;-80
2023/05/15 15:17:45;;;;;;;14.85;11.32;;;15.00;99.90;;;;;;5035035;28;20046;-82
2023/05/15 15:20:11;;;;;;;18.42;11.23;;;15.00;99.90;;;;;;5034339;28;20081;-76
2023/05/15 15:22:38;;;;;;;16.85;11.18;;;15.00;99.90;;;;;;5035569;28;20072;-79
2023/05/15 15:25:05;;;;;;;16.08;11.18;;;15.00;99.90;;;;;;5034203;28;20500;-78
2023/05/15 15:27:31;;;;;;;18.02;12.00;;;14.90;99.90;;;;;;5033641;28;20084;-77
2023/05/15 15:29:57;;;;;;;17.52;12.02;;;14.90;99.90;;;;;;5017754;28;20052;-77
2023/05/15 15:32:26;;;;;;;19.00;12.45;;;14.60;99.90;;;;;;5023513;22;20041;-79
2023/05/15 15:34:54;;;;;;;17.98;12.00;;;14.50;99.90;;;;;;4998488;28;20048;-78
2023/05/15 15:37:20;;;;;;;18.05;11.73;;;14.40;99.90;;;;;;5016375;28;20045;-77
2023/05/15 15:39:46;;;;;;;19.08;12.50;;;14.40;99.90;;;;;;5016280;28;20086;-81